sensor_id;sensor_type;location;lat;lon;timestamp;temperature;humidity
41720;DHT22;27405;53.316;-6.294;2023-04-24T00:00:06;10.40;99.90
41720;DHT22;27405;53.316;-6.294;2023-04-24T00:02:34;10.40;99.90
41720;DHT22;27405;53.316;-6.294;2023-04-24T00:05:04;10.40;99.90
41720;DHT22;27405;53.316;-6.294;2023-04-24T00:07:29;10.30;99.90
41720;DHT22;27405;53.316;-6.294;2023-04-24T00:09:55;10.30;99.90
41720;DHT22;27405;53.316;-6.294;2023-04-24T00:12:21;10.30;99.90
41720;DHT22;27405;53.316;-6.294;2023-04-24T00:14:47;10.30;99.90
41720;DHT22;27405;53.316;-6.294;2023-04-24T00:17:13;10.30;99.90
41720;DHT22;27405;53.316;-6.294;2023-04-24T00:19:38;10.30;99.90
41720;DHT22;27405;53.316;-6.294;2023-04-24T00:22:04;10.20;99.90
41720;DHT22;27405;53.316;-6.294;2023-04-24T00:24:30;10.20;99.90
41720;DHT22;27405;53.316;-6.294;2023-04-24T00:26:56;10.20;99.90
41720;DHT22;27405;53.316;-6.294;2023-04-24T00:29:22;10.10;99.90
41720;DHT22;27405;53.316;-6.294;2023-04-24T00:31:48;10.10;99.90
41720;DHT22;27405;53.316;-6.294;2023-04-24T00:34:14;10.00;99.90
41720;DHT22;27405;53.316;-6.294;2023-04-24T00:36:39;10.00;99.90
41720;DHT22;27405;53.316;-6.294;2023-04-24T00:39:05;9.90;99.90
41720;DHT22;27405;53.316;-6.294;2023-04-24T00:41:34;9.90;99.90
41720;DHT22;27405;53.316;-6.294;2023-04-24T00:44:00;10.00;99.90
41720;DHT22;27405;53.316;-6.294;2023-04-24T00:46:26;10.00;99.90
41720;DHT22;27405;53.316;-6.294;2023-04-24T00:48:52;9.90;99.90
41720;DHT22;27405;53.316;-6.294;2023-04-24T00:51:17;9.90;99.90
41720;DHT22;27405;53.316;-6.294;2023-04-24T00:53:43;9.90;99.90
41720;DHT22;27405;53.316;-6.294;2023-04-24T00:56:09;9.90;99.90
41720;DHT22;27405;53.316;-6.294;2023-04-24T00:58:35;9.80;99.90
41720;DHT22;27405;53.316;-6.294;2023-04-24T01:01:01;9.80;99.90
41720;DHT22;27405;53.316;-6.294;2023-04-24T01:03:29;9.80;99.90
41720;DHT22;27405;53.316;-6.294;2023-04-24T01:05:58;9.80;99.90
41720;DHT22;27405;53.316;-6.294;2023-04-24T01:08:25;9.70;99.90
41720;DHT22;27405;53.316;-6.294;2023-04-24T01:10:52;9.80;99.90
41720;DHT22;27405;53.316;-6.294;2023-04-24T01:13:19;9.70;99.90
41720;DHT22;27405;53.316;-6.294;2023-04-24T01:15:46;9.70;99.90
41720;DHT22;27405;53.316;-6.294;2023-04-24T01:18:12;9.70;99.90
41720;DHT22;27405;53.316;-6.294;2023-04-24T01:20:40;9.60;99.90
41720;DHT22;27405;53.316;-6.294;2023-04-24T01:23:06;9.60;99.90
41720;DHT22;27405;53.316;-6.294;2023-04-24T01:25:33;9.60;99.90
41720;DHT22;27405;53.316;-6.294;2023-04-24T01:27:59;9.60;99.90
41720;DHT22;27405;53.316;-6.294;2023-04-24T01:30:25;9.60;99.90
41720;DHT22;27405;53.316;-6.294;2023-04-24T01:32:52;9.60;99.90
41720;DHT22;27405;53.316;-6.294;2023-04-24T01:35:18;9.50;99.90
41720;DHT22;27405;53.316;-6.294;2023-04-24T01:37:44;9.50;99.90
41720;DHT22;27405;53.316;-6.294;2023-04-24T01:40:10;9.60;99.90
41720;DHT22;27405;53.316;-6.294;2023-04-24T01:42:36;9.60;99.90
41720;DHT22;27405;53.316;-6.294;2023-04-24T01:45:03;9.60;99.90
41720;DHT22;27405;53.316;-6.294;2023-04-24T01:47:30;9.60;99.90
41720;DHT22;27405;53.316;-6.294;2023-04-24T01:49:56;9.60;99.90
41720;DHT22;27405;53.316;-6.294;2023-04-24T01:52:22;9.60;99.90
41720;DHT22;27405;53.316;-6.294;2023-04-24T01:54:47;9.60;99.90
41720;DHT22;27405;53.316;-6.294;2023-04-24T01:57:14;9.70;99.90
41720;DHT22;27405;53.316;-6.294;2023-04-24T01:59:41;9.60;99.90
41720;DHT22;27405;53.316;-6.294;2023-04-24T02:02:07;9.60;99.90
41720;DHT22;27405;53.316;-6.294;2023-04-24T02:04:32;9.70;99.90
41720;DHT22;27405;53.316;-6.294;2023-04-24T02:06:58;9.70;99.90
41720;DHT22;27405;53.316;-6.294;2023-04-24T02:09:23;9.70;99.90
41720;DHT22;27405;53.316;-6.294;2023-04-24T02:11:50;9.70;99.90
41720;DHT22;27405;53.316;-6.294;2023-04-24T02:14:16;9.70;99.90
41720;DHT22;27405;53.316;-6.294;2023-04-24T02:16:41;9.70;99.90
41720;DHT22;27405;53.316;-6.294;2023-04-24T02:19:07;9.80;99.90
41720;DHT22;27405;53.316;-6.294;2023-04-24T02:21:33;9.80;99.90
41720;DHT22;27405;53.316;-6.294;2023-04-24T02:23:59;9.80;99.90
41720;DHT22;27405;53.316;-6.294;2023-04-24T02:26:25;9.80;99.90
41720;DHT22;27405;53.316;-6.294;2023-04-24T02:28:50;9.90;99.90
41720;DHT22;27405;53.316;-6.294;2023-04-24T02:31:16;9.90;99.90
41720;DHT22;27405;53.316;-6.294;2023-04-24T02:33:42;10.00;99.90
41720;DHT22;27405;53.316;-6.294;2023-04-24T02:36:07;10.00;99.90
41720;DHT22;27405;53.316;-6.294;2023-04-24T02:38:33;10.00;99.90
41720;DHT22;27405;53.316;-6.294;2023-04-24T02:40:59;10.00;99.90
41720;DHT22;27405;53.316;-6.294;2023-04-24T02:43:26;10.10;99.90
41720;DHT22;27405;53.316;-6.294;2023-04-24T02:45:51;10.10;99.90
41720;DHT22;27405;53.316;-6.294;2023-04-24T02:48:17;10.10;99.90
41720;DHT22;27405;53.316;-6.294;2023-04-24T02:50:43;10.10;99.90
41720;DHT22;27405;53.316;-6.294;2023-04-24T02:53:08;10.10;99.90
41720;DHT22;27405;53.316;-6.294;2023-04-24T02:55:34;10.20;99.90
41720;DHT22;27405;53.316;-6.294;2023-04-24T02:58:00;10.20;99.90
41720;DHT22;27405;53.316;-6.294;2023-04-24T03:00:25;10.20;99.90
41720;DHT22;27405;53.316;-6.294;2023-04-24T03:02:51;10.20;99.90
41720;DHT22;27405;53.316;-6.294;2023-04-24T03:05:17;10.20;99.90
41720;DHT22;27405;53.316;-6.294;2023-04-24T03:07:42;10.20;99.90
41720;DHT22;27405;53.316;-6.294;2023-04-24T03:10:08;10.20;99.90
41720;DHT22;27405;53.316;-6.294;2023-04-24T03:12:34;10.20;99.90
41720;DHT22;27405;53.316;-6.294;2023-04-24T03:14:59;10.10;99.90
41720;DHT22;27405;53.316;-6.294;2023-04-24T03:17:26;10.20;99.90
41720;DHT22;27405;53.316;-6.294;2023-04-24T03:19:52;10.10;99.90
41720;DHT22;27405;53.316;-6.294;2023-04-24T03:22:18;10.10;99.90
41720;DHT22;27405;53.316;-6.294;2023-04-24T03:24:43;10.20;99.90
41720;DHT22;27405;53.316;-6.294;2023-04-24T03:27:09;10.10;99.90
41720;DHT22;27405;53.316;-6.294;2023-04-24T03:29:35;10.10;99.90
41720;DHT22;27405;53.316;-6.294;2023-04-24T03:32:00;10.10;99.90
41720;DHT22;27405;53.316;-6.294;2023-04-24T03:34:26;10.10;99.90
41720;DHT22;27405;53.316;-6.294;2023-04-24T03:36:51;10.10;99.90
41720;DHT22;27405;53.316;-6.294;2023-04-24T03:39:18;10.10;99.90
41720;DHT22;27405;53.316;-6.294;2023-04-24T03:41:44;10.20;99.90
41720;DHT22;27405;53.316;-6.294;2023-04-24T03:44:10;10.10;99.90
41720;DHT22;27405;53.316;-6.294;2023-04-24T03:46:35;10.10;99.90
41720;DHT22;27405;53.316;-6.294;2023-04-24T03:49:01;10.10;99.90
41720;DHT22;27405;53.316;-6.294;2023-04-24T03:51:27;10.10;99.90
41720;DHT22;27405;53.316;-6.294;2023-04-24T03:53:53;10.10;99.90
41720;DHT22;27405;53.316;-6.294;2023-04-24T03:56:19;10.10;99.90
41720;DHT22;27405;53.316;-6.294;2023-04-24T03:58:45;10.10;99.90
41720;DHT22;27405;53.316;-6.294;2023-04-24T04:01:11;10.10;99.90
41720;DHT22;27405;53.316;-6.294;2023-04-24T04:03:37;10.00;99.90
41720;DHT22;27405;53.316;-6.294;2023-04-24T04:06:03;10.00;99.90
41720;DHT22;27405;53.316;-6.294;2023-04-24T04:08:29;10.00;99.90
41720;DHT22;27405;53.316;-6.294;2023-04-24T04:10:54;10.00;99.90
41720;DHT22;27405;53.316;-6.294;2023-04-24T04:13:20;10.00;99.90
41720;DHT22;27405;53.316;-6.294;2023-04-24T04:15:46;10.00;99.90
41720;DHT22;27405;53.316;-6.294;2023-04-24T04:18:11;10.00;99.90
41720;DHT22;27405;53.316;-6.294;2023-04-24T04:20:37;10.00;99.90
41720;DHT22;27405;53.316;-6.294;2023-04-24T04:23:03;10.00;99.90
41720;DHT22;27405;53.316;-6.294;2023-04-24T04:25:28;10.00;99.90
41720;DHT22;27405;53.316;-6.294;2023-04-24T04:27:54;9.90;99.90
41720;DHT22;27405;53.316;-6.294;2023-04-24T04:30:20;9.90;99.90
41720;DHT22;27405;53.316;-6.294;2023-04-24T04:32:46;9.90;99.90
41720;DHT22;27405;53.316;-6.294;2023-04-24T04:35:12;9.90;99.90
41720;DHT22;27405;53.316;-6.294;2023-04-24T04:37:38;9.90;99.90
41720;DHT22;27405;53.316;-6.294;2023-04-24T04:40:04;9.90;99.90
41720;DHT22;27405;53.316;-6.294;2023-04-24T04:42:33;9.90;99.90
41720;DHT22;27405;53.316;-6.294;2023-04-24T04:45:08;9.90;99.90
41720;DHT22;27405;53.316;-6.294;2023-04-24T04:47:34;9.90;99.90
41720;DHT22;27405;53.316;-6.294;2023-04-24T04:50:00;9.90;99.90
41720;DHT22;27405;53.316;-6.294;2023-04-24T04:52:26;10.00;99.90
41720;DHT22;27405;53.316;-6.294;2023-04-24T04:54:52;9.90;99.90
41720;DHT22;27405;53.316;-6.294;2023-04-24T04:57:18;9.80;99.90
41720;DHT22;27405;53.316;-6.294;2023-04-24T04:59:44;9.70;99.90
41720;DHT22;27405;53.316;-6.294;2023-04-24T05:02:10;9.40;99.90
41720;DHT22;27405;53.316;-6.294;2023-04-24T05:04:35;9.20;99.90
41720;DHT22;27405;53.316;-6.294;2023-04-24T05:07:01;9.00;99.90
41720;DHT22;27405;53.316;-6.294;2023-04-24T05:09:27;8.80;99.90
41720;DHT22;27405;53.316;-6.294;2023-04-24T05:11:55;8.50;99.90
41720;DHT22;27405;53.316;-6.294;2023-04-24T05:14:20;8.30;99.90
41720;DHT22;27405;53.316;-6.294;2023-04-24T05:16:47;8.20;99.90
41720;DHT22;27405;53.316;-6.294;2023-04-24T05:19:12;8.20;99.90
41720;DHT22;27405;53.316;-6.294;2023-04-24T05:21:39;8.20;99.90
41720;DHT22;27405;53.316;-6.294;2023-04-24T05:24:06;8.20;99.90
41720;DHT22;27405;53.316;-6.294;2023-04-24T05:26:31;8.20;99.90
41720;DHT22;27405;53.316;-6.294;2023-04-24T05:28:57;8.20;99.90
41720;DHT22;27405;53.316;-6.294;2023-04-24T05:31:23;8.20;99.90
41720;DHT22;27405;53.316;-6.294;2023-04-24T05:33:48;8.20;99.90
41720;DHT22;27405;53.316;-6.294;2023-04-24T05:36:14;8.20;99.90
41720;DHT22;27405;53.316;-6.294;2023-04-24T05:38:40;8.20;99.90
41720;DHT22;27405;53.316;-6.294;2023-04-24T05:41:06;8.20;99.90
41720;DHT22;27405;53.316;-6.294;2023-04-24T05:43:31;8.20;99.90
41720;DHT22;27405;53.316;-6.294;2023-04-24T05:45:57;8.10;99.90
41720;DHT22;27405;53.316;-6.294;2023-04-24T05:48:22;8.10;99.90
41720;DHT22;27405;53.316;-6.294;2023-04-24T05:50:48;8.10;99.90
41720;DHT22;27405;53.316;-6.294;2023-04-24T05:53:14;8.10;99.90
41720;DHT22;27405;53.316;-6.294;2023-04-24T05:55:40;8.10;99.90
41720;DHT22;27405;53.316;-6.294;2023-04-24T05:58:06;8.00;99.90
41720;DHT22;27405;53.316;-6.294;2023-04-24T06:00:31;7.90;99.90
41720;DHT22;27405;53.316;-6.294;2023-04-24T06:03:00;7.90;99.90
41720;DHT22;27405;53.316;-6.294;2023-04-24T06:05:26;7.80;99.90
41720;DHT22;27405;53.316;-6.294;2023-04-24T06:07:52;7.80;99.90
41720;DHT22;27405;53.316;-6.294;2023-04-24T06:10:17;7.80;99.90
41720;DHT22;27405;53.316;-6.294;2023-04-24T06:12:43;7.70;99.90
41720;DHT22;27405;53.316;-6.294;2023-04-24T06:15:09;7.70;99.90
41720;DHT22;27405;53.316;-6.294;2023-04-24T06:17:35;7.70;99.90
41720;DHT22;27405;53.316;-6.294;2023-04-24T06:20:01;7.70;99.90
41720;DHT22;27405;53.316;-6.294;2023-04-24T06:22:26;7.70;99.90
41720;DHT22;27405;53.316;-6.294;2023-04-24T06:24:52;7.70;99.90
41720;DHT22;27405;53.316;-6.294;2023-04-24T06:27:18;7.80;99.90
41720;DHT22;27405;53.316;-6.294;2023-04-24T06:29:43;7.80;99.90
41720;DHT22;27405;53.316;-6.294;2023-04-24T06:32:09;7.80;99.90
41720;DHT22;27405;53.316;-6.294;2023-04-24T06:34:35;7.80;99.90
41720;DHT22;27405;53.316;-6.294;2023-04-24T06:37:02;7.80;99.90
41720;DHT22;27405;53.316;-6.294;2023-04-24T06:39:27;7.80;99.90
41720;DHT22;27405;53.316;-6.294;2023-04-24T06:41:53;7.80;99.90
41720;DHT22;27405;53.316;-6.294;2023-04-24T06:44:19;7.70;99.90
41720;DHT22;27405;53.316;-6.294;2023-04-24T06:46:44;7.80;99.90
41720;DHT22;27405;53.316;-6.294;2023-04-24T06:49:10;7.70;99.90
41720;DHT22;27405;53.316;-6.294;2023-04-24T06:51:36;7.70;99.90
41720;DHT22;27405;53.316;-6.294;2023-04-24T06:54:02;7.70;99.90
41720;DHT22;27405;53.316;-6.294;2023-04-24T06:56:28;7.80;99.90
41720;DHT22;27405;53.316;-6.294;2023-04-24T06:58:54;7.80;99.90
41720;DHT22;27405;53.316;-6.294;2023-04-24T07:01:20;7.80;99.90
41720;DHT22;27405;53.316;-6.294;2023-04-24T07:03:46;7.70;99.90
41720;DHT22;27405;53.316;-6.294;2023-04-24T07:06:11;7.70;99.90
41720;DHT22;27405;53.316;-6.294;2023-04-24T07:08:38;7.70;99.90
41720;DHT22;27405;53.316;-6.294;2023-04-24T07:11:04;7.70;99.90
41720;DHT22;27405;53.316;-6.294;2023-04-24T07:13:29;7.70;99.90
41720;DHT22;27405;53.316;-6.294;2023-04-24T07:15:55;7.70;99.90
41720;DHT22;27405;53.316;-6.294;2023-04-24T07:18:22;7.70;99.90
41720;DHT22;27405;53.316;-6.294;2023-04-24T07:20:48;7.70;99.90
41720;DHT22;27405;53.316;-6.294;2023-04-24T07:23:16;7.70;99.90
41720;DHT22;27405;53.316;-6.294;2023-04-24T07:25:41;7.70;99.90
41720;DHT22;27405;53.316;-6.294;2023-04-24T07:28:07;7.70;99.90
41720;DHT22;27405;53.316;-6.294;2023-04-24T07:30:33;7.70;99.90
41720;DHT22;27405;53.316;-6.294;2023-04-24T07:32:59;7.70;99.90
41720;DHT22;27405;53.316;-6.294;2023-04-24T07:35:26;7.80;99.90
41720;DHT22;27405;53.316;-6.294;2023-04-24T07:37:53;7.80;99.90
41720;DHT22;27405;53.316;-6.294;2023-04-24T07:40:18;7.80;99.90
41720;DHT22;27405;53.316;-6.294;2023-04-24T07:42:44;7.90;99.90
41720;DHT22;27405;53.316;-6.294;2023-04-24T07:45:10;7.90;99.90
41720;DHT22;27405;53.316;-6.294;2023-04-24T07:47:36;7.90;99.90
41720;DHT22;27405;53.316;-6.294;2023-04-24T07:50:03;7.90;99.90
41720;DHT22;27405;53.316;-6.294;2023-04-24T07:52:29;7.90;99.90
41720;DHT22;27405;53.316;-6.294;2023-04-24T07:54:55;7.90;99.90
41720;DHT22;27405;53.316;-6.294;2023-04-24T07:57:24;7.90;99.90
41720;DHT22;27405;53.316;-6.294;2023-04-24T07:59:50;7.90;99.90
41720;DHT22;27405;53.316;-6.294;2023-04-24T08:02:16;8.00;99.90
41720;DHT22;27405;53.316;-6.294;2023-04-24T08:04:43;8.00;99.90
41720;DHT22;27405;53.316;-6.294;2023-04-24T08:07:08;8.10;99.90
41720;DHT22;27405;53.316;-6.294;2023-04-24T08:09:34;8.10;99.90
41720;DHT22;27405;53.316;-6.294;2023-04-24T08:12:00;8.20;99.90
41720;DHT22;27405;53.316;-6.294;2023-04-24T08:14:26;8.20;99.90
41720;DHT22;27405;53.316;-6.294;2023-04-24T08:16:54;8.30;99.90
41720;DHT22;27405;53.316;-6.294;2023-04-24T08:19:21;8.40;99.90
41720;DHT22;27405;53.316;-6.294;2023-04-24T08:21:46;8.50;99.90
41720;DHT22;27405;53.316;-6.294;2023-04-24T08:24:12;8.50;99.90
41720;DHT22;27405;53.316;-6.294;2023-04-24T08:26:38;8.60;99.90
41720;DHT22;27405;53.316;-6.294;2023-04-24T08:29:04;8.60;99.90
41720;DHT22;27405;53.316;-6.294;2023-04-24T08:31:31;8.70;99.90
41720;DHT22;27405;53.316;-6.294;2023-04-24T08:33:57;8.80;99.90
41720;DHT22;27405;53.316;-6.294;2023-04-24T08:36:24;8.80;99.90
41720;DHT22;27405;53.316;-6.294;2023-04-24T08:38:49;8.90;99.90
41720;DHT22;27405;53.316;-6.294;2023-04-24T08:41:15;9.00;99.90
41720;DHT22;27405;53.316;-6.294;2023-04-24T08:43:43;9.10;99.90
41720;DHT22;27405;53.316;-6.294;2023-04-24T08:46:13;9.20;99.90
41720;DHT22;27405;53.316;-6.294;2023-04-24T08:48:39;9.20;99.90
41720;DHT22;27405;53.316;-6.294;2023-04-24T08:51:07;9.30;99.90
41720;DHT22;27405;53.316;-6.294;2023-04-24T08:53:33;9.40;99.90
41720;DHT22;27405;53.316;-6.294;2023-04-24T08:56:01;9.50;99.90
41720;DHT22;27405;53.316;-6.294;2023-04-24T08:58:28;9.50;99.90
41720;DHT22;27405;53.316;-6.294;2023-04-24T09:00:57;9.50;99.90
41720;DHT22;27405;53.316;-6.294;2023-04-24T09:03:24;9.50;99.90
41720;DHT22;27405;53.316;-6.294;2023-04-24T09:05:50;9.60;99.90
41720;DHT22;27405;53.316;-6.294;2023-04-24T09:08:23;9.50;99.90
41720;DHT22;27405;53.316;-6.294;2023-04-24T09:10:49;9.50;99.90
41720;DHT22;27405;53.316;-6.294;2023-04-24T09:13:15;9.40;99.90
41720;DHT22;27405;53.316;-6.294;2023-04-24T09:15:41;9.30;99.90
41720;DHT22;27405;53.316;-6.294;2023-04-24T09:18:07;9.30;99.90
41720;DHT22;27405;53.316;-6.294;2023-04-24T09:20:33;9.30;99.90
41720;DHT22;27405;53.316;-6.294;2023-04-24T09:23:01;9.30;99.90
41720;DHT22;27405;53.316;-6.294;2023-04-24T09:25:34;9.40;99.90
41720;DHT22;27405;53.316;-6.294;2023-04-24T09:28:04;9.50;99.90
41720;DHT22;27405;53.316;-6.294;2023-04-24T09:30:31;9.60;99.90
41720;DHT22;27405;53.316;-6.294;2023-04-24T09:33:15;9.70;99.90
41720;DHT22;27405;53.316;-6.294;2023-04-24T09:35:52;9.80;99.90
41720;DHT22;27405;53.316;-6.294;2023-04-24T09:38:18;9.90;99.90
41720;DHT22;27405;53.316;-6.294;2023-04-24T09:40:43;9.90;99.90
41720;DHT22;27405;53.316;-6.294;2023-04-24T09:43:12;9.90;99.90
41720;DHT22;27405;53.316;-6.294;2023-04-24T09:45:39;9.90;99.90
41720;DHT22;27405;53.316;-6.294;2023-04-24T09:48:05;9.90;99.90
41720;DHT22;27405;53.316;-6.294;2023-04-24T09:50:34;9.80;99.90
41720;DHT22;27405;53.316;-6.294;2023-04-24T09:53:05;9.80;99.90
41720;DHT22;27405;53.316;-6.294;2023-04-24T09:55:31;9.80;99.90
41720;DHT22;27405;53.316;-6.294;2023-04-24T09:58:01;9.80;99.90
41720;DHT22;27405;53.316;-6.294;2023-04-24T10:00:31;10.00;99.90
41720;DHT22;27405;53.316;-6.294;2023-04-24T10:03:04;10.10;99.90
41720;DHT22;27405;53.316;-6.294;2023-04-24T10:05:32;10.20;99.90
41720;DHT22;27405;53.316;-6.294;2023-04-24T10:08:02;10.20;99.90
41720;DHT22;27405;53.316;-6.294;2023-04-24T10:10:29;10.30;99.90
41720;DHT22;27405;53.316;-6.294;2023-04-24T10:12:55;10.30;99.90
41720;DHT22;27405;53.316;-6.294;2023-04-24T10:15:21;10.40;99.90
41720;DHT22;27405;53.316;-6.294;2023-04-24T10:17:50;10.40;99.90
41720;DHT22;27405;53.316;-6.294;2023-04-24T10:20:24;10.50;99.90
41720;DHT22;27405;53.316;-6.294;2023-04-24T10:22:52;10.60;99.90
41720;DHT22;27405;53.316;-6.294;2023-04-24T10:25:23;10.70;99.90
41720;DHT22;27405;53.316;-6.294;2023-04-24T10:27:51;10.80;99.90
41720;DHT22;27405;53.316;-6.294;2023-04-24T10:30:19;10.90;99.90
41720;DHT22;27405;53.316;-6.294;2023-04-24T10:32:45;11.10;99.90
41720;DHT22;27405;53.316;-6.294;2023-04-24T10:35:15;11.10;99.90
41720;DHT22;27405;53.316;-6.294;2023-04-24T10:37:44;11.30;99.90
41720;DHT22;27405;53.316;-6.294;2023-04-24T10:40:12;11.40;99.90
41720;DHT22;27405;53.316;-6.294;2023-04-24T10:42:41;11.50;99.90
41720;DHT22;27405;53.316;-6.294;2023-04-24T10:45:17;11.60;99.90
41720;DHT22;27405;53.316;-6.294;2023-04-24T10:47:51;11.70;99.90
41720;DHT22;27405;53.316;-6.294;2023-04-24T10:50:17;11.80;99.90
41720;DHT22;27405;53.316;-6.294;2023-04-24T10:52:47;11.80;99.90
41720;DHT22;27405;53.316;-6.294;2023-04-24T10:55:14;11.80;99.90
41720;DHT22;27405;53.316;-6.294;2023-04-24T10:58:01;11.70;99.90
41720;DHT22;27405;53.316;-6.294;2023-04-24T11:00:27;11.70;99.90
41720;DHT22;27405;53.316;-6.294;2023-04-24T11:02:53;11.60;99.90
41720;DHT22;27405;53.316;-6.294;2023-04-24T11:05:20;11.50;99.90
41720;DHT22;27405;53.316;-6.294;2023-04-24T11:10:43;11.40;99.90
41720;DHT22;27405;53.316;-6.294;2023-04-24T11:13:10;11.30;99.90
41720;DHT22;27405;53.316;-6.294;2023-04-24T11:15:35;11.30;99.90
41720;DHT22;27405;53.316;-6.294;2023-04-24T11:18:01;11.40;99.90
41720;DHT22;27405;53.316;-6.294;2023-04-24T11:20:27;11.30;99.90
41720;DHT22;27405;53.316;-6.294;2023-04-24T11:22:54;11.40;99.90
41720;DHT22;27405;53.316;-6.294;2023-04-24T11:25:21;11.40;99.90
41720;DHT22;27405;53.316;-6.294;2023-04-24T11:27:47;11.50;99.90
41720;DHT22;27405;53.316;-6.294;2023-04-24T11:30:19;11.50;99.90
41720;DHT22;27405;53.316;-6.294;2023-04-24T11:32:49;11.60;99.90
41720;DHT22;27405;53.316;-6.294;2023-04-24T11:35:20;11.70;99.90
41720;DHT22;27405;53.316;-6.294;2023-04-24T11:37:48;11.90;99.90
41720;DHT22;27405;53.316;-6.294;2023-04-24T11:40:16;12.00;99.90
41720;DHT22;27405;53.316;-6.294;2023-04-24T11:42:43;12.10;99.90
41720;DHT22;27405;53.316;-6.294;2023-04-24T11:45:18;12.10;99.90
41720;DHT22;27405;53.316;-6.294;2023-04-24T11:47:45;12.10;99.90
41720;DHT22;27405;53.316;-6.294;2023-04-24T11:50:13;12.20;99.90
41720;DHT22;27405;53.316;-6.294;2023-04-24T11:52:40;12.10;99.90
41720;DHT22;27405;53.316;-6.294;2023-04-24T11:57:42;12.30;99.90
41720;DHT22;27405;53.316;-6.294;2023-04-24T12:00:55;12.40;99.90
41720;DHT22;27405;53.316;-6.294;2023-04-24T12:03:10;12.50;99.90
41720;DHT22;27405;53.316;-6.294;2023-04-24T12:05:37;12.60;99.90
41720;DHT22;27405;53.316;-6.294;2023-04-24T12:08:04;12.60;99.90
41720;DHT22;27405;53.316;-6.294;2023-04-24T12:10:31;12.60;99.90
41720;DHT22;27405;53.316;-6.294;2023-04-24T12:12:58;12.50;99.90
41720;DHT22;27405;53.316;-6.294;2023-04-24T12:15:25;12.40;99.90
41720;DHT22;27405;53.316;-6.294;2023-04-24T12:17:53;12.20;99.90
41720;DHT22;27405;53.316;-6.294;2023-04-24T12:20:32;12.10;99.90
41720;DHT22;27405;53.316;-6.294;2023-04-24T12:23:00;12.10;99.90
41720;DHT22;27405;53.316;-6.294;2023-04-24T12:25:28;12.10;99.90
41720;DHT22;27405;53.316;-6.294;2023-04-24T12:27:55;12.00;99.90
41720;DHT22;27405;53.316;-6.294;2023-04-24T12:30:40;12.10;99.90
41720;DHT22;27405;53.316;-6.294;2023-04-24T12:33:06;12.20;99.90
41720;DHT22;27405;53.316;-6.294;2023-04-24T12:35:33;12.30;99.90
41720;DHT22;27405;53.316;-6.294;2023-04-24T12:38:15;12.30;99.90
41720;DHT22;27405;53.316;-6.294;2023-04-24T12:40:42;12.40;99.90
41720;DHT22;27405;53.316;-6.294;2023-04-24T12:45:39;12.50;99.90
41720;DHT22;27405;53.316;-6.294;2023-04-24T12:48:05;12.50;99.90
41720;DHT22;27405;53.316;-6.294;2023-04-24T12:50:30;12.50;99.90
41720;DHT22;27405;53.316;-6.294;2023-04-24T12:52:56;12.60;99.90
41720;DHT22;27405;53.316;-6.294;2023-04-24T12:55:22;12.80;99.90
41720;DHT22;27405;53.316;-6.294;2023-04-24T12:57:47;13.00;99.90
41720;DHT22;27405;53.316;-6.294;2023-04-24T13:00:14;13.10;99.90
41720;DHT22;27405;53.316;-6.294;2023-04-24T13:02:40;13.10;99.90
41720;DHT22;27405;53.316;-6.294;2023-04-24T13:05:06;13.10;99.90
41720;DHT22;27405;53.316;-6.294;2023-04-24T13:07:32;13.10;99.90
41720;DHT22;27405;53.316;-6.294;2023-04-24T13:09:58;13.10;99.90
41720;DHT22;27405;53.316;-6.294;2023-04-24T13:12:24;13.10;99.90
41720;DHT22;27405;53.316;-6.294;2023-04-24T13:14:50;13.00;99.90
41720;DHT22;27405;53.316;-6.294;2023-04-24T13:17:16;12.90;99.90
41720;DHT22;27405;53.316;-6.294;2023-04-24T13:19:43;12.90;99.90
41720;DHT22;27405;53.316;-6.294;2023-04-24T13:22:10;12.80;99.90
41720;DHT22;27405;53.316;-6.294;2023-04-24T13:24:36;12.80;99.90
41720;DHT22;27405;53.316;-6.294;2023-04-24T13:27:03;12.80;99.90
41720;DHT22;27405;53.316;-6.294;2023-04-24T13:29:29;12.70;99.90
41720;DHT22;27405;53.316;-6.294;2023-04-24T13:31:55;12.70;99.90
41720;DHT22;27405;53.316;-6.294;2023-04-24T13:34:24;12.60;99.90
41720;DHT22;27405;53.316;-6.294;2023-04-24T13:36:54;12.60;99.90
41720;DHT22;27405;53.316;-6.294;2023-04-24T13:39:21;12.40;99.90
41720;DHT22;27405;53.316;-6.294;2023-04-24T13:41:47;12.30;99.90
41720;DHT22;27405;53.316;-6.294;2023-04-24T13:44:14;12.30;99.90
41720;DHT22;27405;53.316;-6.294;2023-04-24T13:46:41;12.20;99.90
41720;DHT22;27405;53.316;-6.294;2023-04-24T13:49:06;12.20;99.90
41720;DHT22;27405;53.316;-6.294;2023-04-24T13:51:32;12.20;99.90
41720;DHT22;27405;53.316;-6.294;2023-04-24T13:53:58;12.20;99.90
41720;DHT22;27405;53.316;-6.294;2023-04-24T13:56:25;12.10;99.90
41720;DHT22;27405;53.316;-6.294;2023-04-24T13:58:51;12.10;99.90
41720;DHT22;27405;53.316;-6.294;2023-04-24T14:01:17;12.20;99.90
41720;DHT22;27405;53.316;-6.294;2023-04-24T14:03:42;12.20;99.90
41720;DHT22;27405;53.316;-6.294;2023-04-24T14:06:11;12.20;99.60
41720;DHT22;27405;53.316;-6.294;2023-04-24T14:08:36;12.20;99.40
41720;DHT22;27405;53.316;-6.294;2023-04-24T14:11:02;12.20;99.20
41720;DHT22;27405;53.316;-6.294;2023-04-24T14:13:28;12.20;98.80
41720;DHT22;27405;53.316;-6.294;2023-04-24T14:15:54;12.20;98.80
41720;DHT22;27405;53.316;-6.294;2023-04-24T14:18:20;12.20;98.60
41720;DHT22;27405;53.316;-6.294;2023-04-24T14:20:45;12.30;98.70
41720;DHT22;27405;53.316;-6.294;2023-04-24T14:23:11;12.30;98.50
41720;DHT22;27405;53.316;-6.294;2023-04-24T14:25:37;12.30;98.30
41720;DHT22;27405;53.316;-6.294;2023-04-24T14:28:02;12.40;98.10
41720;DHT22;27405;53.316;-6.294;2023-04-24T14:30:28;12.30;97.80
41720;DHT22;27405;53.316;-6.294;2023-04-24T14:32:54;12.30;97.80
41720;DHT22;27405;53.316;-6.294;2023-04-24T14:35:20;12.30;97.70
41720;DHT22;27405;53.316;-6.294;2023-04-24T14:37:45;12.30;97.60
41720;DHT22;27405;53.316;-6.294;2023-04-24T14:40:11;12.30;97.30
41720;DHT22;27405;53.316;-6.294;2023-04-24T14:42:37;12.30;97.10
41720;DHT22;27405;53.316;-6.294;2023-04-24T14:45:02;12.30;97.00
41720;DHT22;27405;53.316;-6.294;2023-04-24T14:47:28;12.30;96.70
41720;DHT22;27405;53.316;-6.294;2023-04-24T14:49:55;12.20;96.50
41720;DHT22;27405;53.316;-6.294;2023-04-24T14:52:21;12.30;96.20
41720;DHT22;27405;53.316;-6.294;2023-04-24T14:54:46;12.30;96.10
41720;DHT22;27405;53.316;-6.294;2023-04-24T14:57:12;12.40;96.00
41720;DHT22;27405;53.316;-6.294;2023-04-24T14:59:38;12.30;95.60
41720;DHT22;27405;53.316;-6.294;2023-04-24T15:02:05;12.30;95.30
41720;DHT22;27405;53.316;-6.294;2023-04-24T15:04:31;12.30;95.10
41720;DHT22;27405;53.316;-6.294;2023-04-24T15:06:57;12.30;95.00
41720;DHT22;27405;53.316;-6.294;2023-04-24T15:09:23;12.40;95.00
41720;DHT22;27405;53.316;-6.294;2023-04-24T15:11:50;12.40;94.80
41720;DHT22;27405;53.316;-6.294;2023-04-24T15:14:17;12.40;94.60
41720;DHT22;27405;53.316;-6.294;2023-04-24T15:16:43;12.50;94.60
41720;DHT22;27405;53.316;-6.294;2023-04-24T15:19:09;12.50;94.40
41720;DHT22;27405;53.316;-6.294;2023-04-24T15:21:36;12.60;94.60
41720;DHT22;27405;53.316;-6.294;2023-04-24T15:24:02;12.60;94.00
41720;DHT22;27405;53.316;-6.294;2023-04-24T15:26:27;12.60;93.90